Terminal Aerodrome Forecast
Issued by NWS Sterling, VA

Home | Current Version | Previous Version | Text Only | Print | Product List | Glossary On
Versions: 1 2 3 4 5 6 7 8 9 10 11 12 13 14 15 16 17
000
FTUS41 KLWX 270633 AAA
TAFCHO
TAF AMD
KCHO 270633Z 2707/2806 35004KT 4SM -RA OVC015
     FM271500 04005KT 5SM -RA OVC025
     FM271700 02004KT P6SM OVC025
     FM272100 03005KT P6SM BKN045
     FM280500 33006KT P6SM BKN060=

USA.gov is the U.S. government's official web portal to all federal, state and local government web resources and services.